Time,TemperatureF,DewpointF,PressureIn,WindDirection,WindDirectionDegrees,WindSpeedMPH,WindSpeedGustMPH,Humidity,HourlyPrecipIn,Conditions,Clouds,dailyrainin,SoftwareType,DateUTC
2013-05-22 00:06:00,47.8,47.0,30.01,ESE,115,7.0,8.0,98,0.18,,,0.01,weatherlink.com 1.10,2013-05-22 04:06:00,
2013-05-22 00:21:00,47.8,47.0,29.97,ESE,112,5.0,13.0,98,0.18,,,0.03,weatherlink.com 1.10,2013-05-22 04:21:00,
2013-05-22 00:36:00,48.0,48.0,30.03,West,271,0.0,8.0,98,0.14,,,0.04,weatherlink.com 1.10,2013-05-22 04:36:00,
2013-05-22 00:51:00,48.0,48.0,29.97,East,92,5.0,10.0,98,0.09,,,0.06,weatherlink.com 1.10,2013-05-22 04:51:00,
2013-05-22 01:06:00,47.8,47.0,29.95,NE,38,0.0,15.0,98,0.12,,,0.13,weatherlink.com 1.10,2013-05-22 05:06:00,
2013-05-22 01:21:00,47.9,48.0,29.98,NE,56,0.0,6.0,99,0.15,,,0.18,weatherlink.com 1.10,2013-05-22 05:21:00,
2013-05-22 01:36:00,47.9,48.0,29.97,NE,40,0.0,7.0,99,0.14,,,0.18,weatherlink.com 1.10,2013-05-22 05:36:00,
2013-05-22 01:51:00,47.9,48.0,29.96,SE,124,0.0,5.0,99,0.11,,,0.18,weatherlink.com 1.10,2013-05-22 05:51:00,
2013-05-22 02:06:00,47.9,48.0,29.99,WSW,242,0.0,4.0,99,0.05,,,0.18,weatherlink.com 1.10,2013-05-22 06:06:00,
2013-05-22 02:21:00,47.9,48.0,30.00,WSW,242,0.0,0.0,99,0.00,,,0.18,weatherlink.com 1.10,2013-05-22 06:21:00,
2013-05-22 02:36:00,47.8,48.0,29.97,NE,44,0.0,5.0,99,0.00,,,0.18,weatherlink.com 1.10,2013-05-22 06:36:00,
2013-05-22 02:51:00,47.7,47.0,29.97,East,85,0.0,7.0,98,0.02,,,0.20,weatherlink.com 1.10,2013-05-22 06:51:00,
2013-05-22 03:06:00,47.7,48.0,29.97,East,86,0.0,1.0,99,0.06,,,0.24,weatherlink.com 1.10,2013-05-22 07:06:00,
2013-05-22 03:21:00,47.8,48.0,29.97,East,93,0.0,4.0,99,0.12,,,0.30,weatherlink.com 1.10,2013-05-22 07:21:00,
2013-05-22 03:36:00,47.8,48.0,29.97,East,93,0.0,1.0,99,0.15,,,0.33,weatherlink.com 1.10,2013-05-22 07:36:00,
2013-05-22 03:51:00,47.9,48.0,29.96,East,96,0.0,3.0,99,0.17,,,0.37,weatherlink.com 1.10,2013-05-22 07:51:00,
2013-05-22 04:06:00,47.9,48.0,29.96,ESE,105,0.0,3.0,99,0.16,,,0.41,weatherlink.com 1.10,2013-05-22 08:06:00,
2013-05-22 04:21:00,47.8,48.0,29.93,ENE,76,0.0,8.0,99,0.13,,,0.43,weatherlink.com 1.10,2013-05-22 08:21:00,
2013-05-22 04:36:00,47.9,48.0,29.93,ENE,57,0.0,8.0,99,0.11,,,0.44,weatherlink.com 1.10,2013-05-22 08:36:00,
2013-05-22 04:51:00,47.8,48.0,29.92,ENE,78,0.0,10.0,99,0.07,,,0.44,weatherlink.com 1.10,2013-05-22 08:51:00,
2013-05-22 05:06:00,47.8,48.0,29.93,East,85,2.0,7.0,99,0.03,,,0.44,weatherlink.com 1.10,2013-05-22 09:06:00,
2013-05-22 05:21:00,47.8,48.0,29.93,NE,49,0.0,4.0,99,0.01,,,0.44,weatherlink.com 1.10,2013-05-22 09:21:00,
2013-05-22 05:36:00,47.8,48.0,29.95,ENE,57,0.0,0.0,99,0.00,,,0.44,weatherlink.com 1.10,2013-05-22 09:36:00,
2013-05-22 05:51:00,47.9,48.0,29.94,ENE,57,0.0,1.0,99,0.00,,,0.44,weatherlink.com 1.10,2013-05-22 09:51:00,
2013-05-22 06:06:00,48.0,48.0,29.93,East,91,0.0,2.0,99,0.00,,,0.44,weatherlink.com 1.10,2013-05-22 10:06:00,
2013-05-22 06:21:00,48.0,48.0,29.94,East,98,0.0,1.0,99,0.00,,,0.44,weatherlink.com 1.10,2013-05-22 10:21:00,
2013-05-22 06:36:00,48.2,48.0,29.94,East,98,0.0,2.0,99,0.00,,,0.44,weatherlink.com 1.10,2013-05-22 10:36:00,
2013-05-22 06:51:00,48.5,48.0,29.96,East,98,0.0,0.0,99,0.00,,,0.44,weatherlink.com 1.10,2013-05-22 10:51:00,
2013-05-22 07:06:00,48.6,48.0,29.95,East,81,1.0,3.0,99,0.00,,,0.44,weatherlink.com 1.10,2013-05-22 11:06:00,
2013-05-22 07:21:00,48.5,48.0,29.95,ENE,74,0.0,5.0,99,0.00,,,0.44,weatherlink.com 1.10,2013-05-22 11:21:00,
2013-05-22 07:36:00,48.6,48.0,29.95,ENE,70,0.0,4.0,99,0.00,,,0.44,weatherlink.com 1.10,2013-05-22 11:36:00,
2013-05-22 07:51:00,48.7,49.0,29.95,East,101,0.0,6.0,99,0.00,,,0.44,weatherlink.com 1.10,2013-05-22 11:51:00,
2013-05-22 08:06:00,48.8,49.0,29.95,East,86,0.0,2.0,99,0.00,,,0.44,weatherlink.com 1.10,2013-05-22 12:06:00,
2013-05-22 08:21:00,49.3,49.0,29.96,East,86,0.0,0.0,99,0.00,,,0.44,weatherlink.com 1.10,2013-05-22 12:21:00,
2013-05-22 08:36:00,49.5,49.0,29.96,ESE,122,0.0,2.0,99,0.00,,,0.44,weatherlink.com 1.10,2013-05-22 12:36:00,
2013-05-22 08:51:00,50.0,50.0,29.95,ENE,70,0.0,7.0,99,0.00,,,0.44,weatherlink.com 1.10,2013-05-22 12:51:00,
2013-05-22 09:06:00,49.9,50.0,29.95,ENE,61,1.0,3.0,99,0.00,,,0.44,weatherlink.com 1.10,2013-05-22 13:06:00,
2013-05-22 09:21:00,50.0,50.0,29.95,East,80,0.0,5.0,99,0.00,,,0.44,weatherlink.com 1.10,2013-05-22 13:21:00,
2013-05-22 09:36:00,50.7,51.0,29.95,East,85,0.0,5.0,99,0.00,,,0.44,weatherlink.com 1.10,2013-05-22 13:36:00,
2013-05-22 09:51:00,50.0,50.0,29.95,NE,48,1.0,4.0,99,0.00,,,0.44,weatherlink.com 1.10,2013-05-22 13:51:00,
2013-05-22 10:06:00,50.5,50.0,29.95,NE,35,5.0,5.0,99,0.00,,,0.44,weatherlink.com 1.10,2013-05-22 14:06:00,
2013-05-22 10:21:00,50.4,50.0,29.96,SE,127,3.0,6.0,99,0.00,,,0.44,weatherlink.com 1.10,2013-05-22 14:21:00,
2013-05-22 10:36:00,50.6,50.0,29.97,ENE,74,4.0,4.0,99,0.00,,,0.44,weatherlink.com 1.10,2013-05-22 14:36:00,
2013-05-22 10:52:00,50.8,51.0,29.97,ENE,68,0.0,5.0,99,0.00,,,0.44,weatherlink.com 1.10,2013-05-22 14:52:00,
2013-05-22 11:07:00,51.8,52.0,29.97,East,90,0.0,2.0,99,0.00,,,0.44,weatherlink.com 1.10,2013-05-22 15:07:00,
2013-05-22 11:22:00,52.0,52.0,29.98,ENE,63,0.0,5.0,99,0.00,,,0.44,weatherlink.com 1.10,2013-05-22 15:22:00,
2013-05-22 11:37:00,52.1,52.0,29.98,East,82,0.0,5.0,99,0.00,,,0.44,weatherlink.com 1.10,2013-05-22 15:37:00,
2013-05-22 11:52:00,52.6,52.0,29.98,East,81,0.0,4.0,99,0.00,,,0.44,weatherlink.com 1.10,2013-05-22 15:52:00,
2013-05-22 12:22:00,53.2,53.0,29.97,NE,49,0.0,5.0,99,0.00,,,0.44,weatherlink.com 1.10,2013-05-22 16:22:00,
2013-05-22 12:37:00,53.7,54.0,29.97,ESE,102,0.0,6.0,99,0.00,,,0.44,weatherlink.com 1.10,2013-05-22 16:37:00,
2013-05-22 12:52:00,54.7,55.0,29.97,East,90,0.0,5.0,99,0.00,,,0.44,weatherlink.com 1.10,2013-05-22 16:52:00,
2013-05-22 13:07:00,55.7,56.0,29.97,ENE,70,4.0,8.0,99,0.00,,,0.44,weatherlink.com 1.10,2013-05-22 17:07:00,
2013-05-22 13:22:00,56.2,56.0,29.97,SE,146,0.0,9.0,99,0.00,,,0.44,weatherlink.com 1.10,2013-05-22 17:22:00,
2013-05-22 13:37:00,57.1,56.0,29.97,ESE,121,0.0,6.0,96,0.00,,,0.44,weatherlink.com 1.10,2013-05-22 17:37:00,
2013-05-22 13:52:00,57.7,56.0,29.97,East,80,3.0,8.0,93,0.00,,,0.44,weatherlink.com 1.10,2013-05-22 17:52:00,
2013-05-22 14:07:00,57.9,56.0,29.96,East,88,0.0,5.0,93,0.00,,,0.44,weatherlink.com 1.10,2013-05-22 18:07:00,
2013-05-22 14:22:00,57.8,56.0,29.96,ESE,107,0.0,7.0,92,0.00,,,0.44,weatherlink.com 1.10,2013-05-22 18:22:00,
2013-05-22 14:37:00,57.7,55.0,29.96,NE,37,0.0,6.0,92,0.00,,,0.44,weatherlink.com 1.10,2013-05-22 18:37:00,
2013-05-22 14:52:00,57.3,55.0,29.95,East,96,0.0,4.0,93,0.00,,,0.44,weatherlink.com 1.10,2013-05-22 18:52:00,
2013-05-22 15:07:00,57.1,55.0,29.95,East,81,0.0,5.0,92,0.00,,,0.44,weatherlink.com 1.10,2013-05-22 19:07:00,
2013-05-22 15:22:00,56.7,55.0,29.95,ENE,64,0.0,4.0,94,0.00,,,0.44,weatherlink.com 1.10,2013-05-22 19:22:00,
2013-05-22 15:37:00,56.7,55.0,29.96,ESE,110,0.0,7.0,94,0.00,,,0.44,weatherlink.com 1.10,2013-05-22 19:37:00,
2013-05-22 15:52:00,56.9,55.0,29.96,ESE,107,0.0,7.0,94,0.00,,,0.44,weatherlink.com 1.10,2013-05-22 19:52:00,
2013-05-22 16:07:00,56.7,55.0,29.95,East,91,0.0,5.0,95,0.00,,,0.44,weatherlink.com 1.10,2013-05-22 20:07:00,
2013-05-22 16:22:00,56.7,55.0,29.95,NE,38,2.0,8.0,95,0.00,,,0.44,weatherlink.com 1.10,2013-05-22 20:22:00,
2013-05-22 16:37:00,56.3,55.0,29.95,NE,53,5.0,7.0,95,0.00,,,0.44,weatherlink.com 1.10,2013-05-22 20:37:00,
2013-05-22 16:52:00,56.0,55.0,29.95,North,355,2.0,5.0,96,0.00,,,0.44,weatherlink.com 1.10,2013-05-22 20:52:00,
2013-05-22 17:07:00,55.6,55.0,29.95,East,96,0.0,5.0,96,0.00,,,0.44,weatherlink.com 1.10,2013-05-22 21:07:00,
2013-05-22 17:22:00,55.2,54.0,29.95,ESE,111,1.0,5.0,96,0.00,,,0.44,weatherlink.com 1.10,2013-05-22 21:22:00,
2013-05-22 17:37:00,55.0,54.0,29.95,ESE,107,3.0,7.0,97,0.00,,,0.44,weatherlink.com 1.10,2013-05-22 21:37:00,
2013-05-22 17:52:00,54.8,54.0,29.95,South,170,3.0,7.0,97,0.00,,,0.44,weatherlink.com 1.10,2013-05-22 21:52:00,
2013-05-22 18:07:00,54.5,54.0,29.95,East,89,1.0,7.0,97,0.01,,,0.45,weatherlink.com 1.10,2013-05-22 22:07:00,
2013-05-22 18:22:00,54.0,53.0,29.96,SSE,164,0.0,4.0,97,0.03,,,0.47,weatherlink.com 1.10,2013-05-22 22:22:00,
2013-05-22 18:37:00,53.7,53.0,29.96,ESE,110,2.0,6.0,97,0.06,,,0.50,weatherlink.com 1.10,2013-05-22 22:37:00,
2013-05-22 18:52:00,53.4,53.0,29.96,East,90,0.0,6.0,98,0.10,,,0.54,weatherlink.com 1.10,2013-05-22 22:52:00,
2013-05-22 19:07:00,52.8,52.0,29.97,East,101,0.0,8.0,98,0.10,,,0.55,weatherlink.com 1.10,2013-05-22 23:07:00,
2013-05-22 19:22:00,52.5,52.0,29.97,East,91,3.0,9.0,98,0.09,,,0.56,weatherlink.com 1.10,2013-05-22 23:22:00,
2013-05-22 19:37:00,52.1,52.0,29.97,NE,48,0.0,10.0,98,0.06,,,0.57,weatherlink.com 1.10,2013-05-22 23:37:00,
2013-05-22 19:52:00,52.1,52.0,29.98,East,86,0.0,3.0,98,0.03,,,0.57,weatherlink.com 1.10,2013-05-22 23:52:00,
2013-05-22 20:07:00,51.9,51.0,29.98,East,99,6.0,6.0,98,0.02,,,0.57,weatherlink.com 1.10,2013-05-23 00:07:00,
2013-05-22 20:22:00,51.9,51.0,29.98,ESE,106,2.0,7.0,98,0.01,,,0.57,weatherlink.com 1.10,2013-05-23 00:22:00,
2013-05-22 20:37:00,51.8,51.0,29.99,ENE,77,2.0,7.0,98,0.00,,,0.57,weatherlink.com 1.10,2013-05-23 00:37:00,
2013-05-22 20:52:00,51.8,51.0,29.98,ESE,102,2.0,9.0,98,0.00,,,0.57,weatherlink.com 1.10,2013-05-23 00:52:00,
2013-05-22 21:07:00,51.6,51.0,29.98,East,88,0.0,9.0,98,0.00,,,0.57,weatherlink.com 1.10,2013-05-23 01:07:00,
2013-05-22 21:22:00,51.4,51.0,29.99,East,80,0.0,6.0,98,0.00,,,0.57,weatherlink.com 1.10,2013-05-23 01:22:00,
2013-05-22 21:37:00,51.2,51.0,29.98,SE,134,2.0,5.0,98,0.00,,,0.57,weatherlink.com 1.10,2013-05-23 01:37:00,
2013-05-22 21:52:00,51.1,51.0,29.99,East,90,0.0,10.0,98,0.00,,,0.57,weatherlink.com 1.10,2013-05-23 01:52:00,
2013-05-22 22:07:00,51.0,51.0,29.99,SSE,158,0.0,0.0,98,0.00,,,0.57,weatherlink.com 1.10,2013-05-23 02:07:00,
2013-05-22 22:22:00,50.9,50.0,29.98,East,91,0.0,3.0,98,0.00,,,0.57,weatherlink.com 1.10,2013-05-23 02:22:00,
2013-05-22 22:37:00,50.7,51.0,29.98,ESE,111,0.0,4.0,99,0.00,,,0.57,weatherlink.com 1.10,2013-05-23 02:37:00,
2013-05-22 22:52:00,50.6,50.0,29.98,South,170,0.0,3.0,98,0.00,,,0.57,weatherlink.com 1.10,2013-05-23 02:52:00,
2013-05-22 23:22:00,50.3,50.0,29.96,East,94,0.0,5.0,99,0.00,,,0.57,weatherlink.com 1.10,2013-05-23 03:22:00,
2013-05-22 23:37:00,50.1,50.0,29.96,East,80,2.0,6.0,98,0.00,,,0.57,weatherlink.com 1.10,2013-05-23 03:37:00,
2013-05-22 23:52:00,49.9,49.0,29.97,ENE,65,0.0,4.0,98,0.00,,,0.57,weatherlink.com 1.10,2013-05-23 03:52:00,